Aérodrome :
LOGIN :

S'inscrire | Disclaimer

   EN    FR    IT 

 










Légende :    VFR   VFR Marginal   IFR   IFR Intensif   IFR Très Intensif
Visi : 
Plafond : 
>= 8 km
>= 3000ft
5 à 8 km
1000 à 3000 ft
1500m à 5 km
500 à 1000 ft
800 à 1500m
200 à 500 ft
< 800m
< 200 ft
Symboles :   Orages  Brouillard  Fortes neiges  Fortes précipitations  Vent > 20 kt
SIGMETs :   Divers  Orages  Givrage  Turbulence  Onde Orograph.  Cendres Volcan.







- Altitude de l'aérodrome : 197 ft
- Code IATA : XOG
- Voir les cartes d'approche


LFMO - Orange

DERNIER METAR :
  • 181100Z AUTO 15010KT CAVOK 22/10 Q1017 TEMPO SHRA BKN060TCU

METARs EXPIRÉS :
  • 181030Z AUTO 17012KT 140V200 CAVOK 22/10 Q1018 TEMPO SHRA BKN060TCU
  • 181000Z AUTO 17012KT CAVOK 21/09 Q1018 TEMPO SHRA BKN060TCU
  • 180930Z AUTO 15011KT 120V180 CAVOK 20/09 Q1018 TEMPO SHRA BKN060TCU
  • 180900Z AUTO 13005KT 100V170 CAVOK 17/09 Q1018 TEMPO SHRA BKN060TCU BECMG 16015KT
  • 180830Z AUTO 12004KT 090V150 9999 FEW058 15/10 Q1018 TEMPO SHRA BKN060TCU BECMG 16015KT
  • 180800Z AUTO 00000KT 9999 OVC058 14/11 Q1019 NOSIG

TAF TAF LFMO
Valide du 18 à 09h jusqu'au 19 à 09h UTC


180800Z 1809/1909 VRB02KT 9999 BKN060
BECMG 1809/1810 16015KT
PROB30
TEMPO 1810/1813 SHRA BKN060TCU
BECMG 1820/1822 17005KT 4000 BR
TEMPO 1903/1906 VRB15KT SHRA BKN040TCU
Pas de NOTAMs connus pour ce terrain.



MET'MAP, la Météo Aéronautique d'un coup d'oeil ! - Copyright ORBIFLY Décembre 2007 - Disclaimer

ORBIFLY MET'MAP TEAM :

Programmation & Développement : Alexandra Zaïnal
Conception & Développement : Baudouin d'Aumeries
Co-Programmation & Développement : Marc-Olivier Méhu
Soutien technique & logistique : Manuel Goepfert

Contact : metmap@orbifly.com




SOURCES & CREDITS :

   NOAA